sensor_id;sensor_type;location;lat;lon;timestamp;P1;durP1;ratioP1;P2;durP2;ratioP2
28070;SDS011;15383;48.408;9.968;2024-01-10T00:01:16;36.78;;;12.52;;
28070;SDS011;15383;48.408;9.968;2024-01-10T00:03:42;37.85;;;12.05;;
28070;SDS011;15383;48.408;9.968;2024-01-10T00:06:09;26.80;;;11.35;;
28070;SDS011;15383;48.408;9.968;2024-01-10T00:08:35;36.30;;;12.27;;
28070;SDS011;15383;48.408;9.968;2024-01-10T00:11:01;27.42;;;11.57;;
28070;SDS011;15383;48.408;9.968;2024-01-10T00:13:26;34.22;;;12.07;;
28070;SDS011;15383;48.408;9.968;2024-01-10T00:15:52;29.20;;;13.30;;
28070;SDS011;15383;48.408;9.968;2024-01-10T00:18:20;24.52;;;11.07;;
28070;SDS011;15383;48.408;9.968;2024-01-10T00:20:46;27.33;;;12.27;;
28070;SDS011;15383;48.408;9.968;2024-01-10T00:23:12;37.97;;;13.88;;
28070;SDS011;15383;48.408;9.968;2024-01-10T00:25:38;27.70;;;13.10;;
28070;SDS011;15383;48.408;9.968;2024-01-10T00:28:04;32.60;;;12.50;;
28070;SDS011;15383;48.408;9.968;2024-01-10T00:30:30;28.20;;;11.73;;
28070;SDS011;15383;48.408;9.968;2024-01-10T00:32:55;30.13;;;12.00;;
28070;SDS011;15383;48.408;9.968;2024-01-10T00:35:21;28.83;;;12.30;;
28070;SDS011;15383;48.408;9.968;2024-01-10T00:37:47;33.75;;;12.75;;
28070;SDS011;15383;48.408;9.968;2024-01-10T00:40:12;32.60;;;13.27;;
28070;SDS011;15383;48.408;9.968;2024-01-10T00:42:38;36.20;;;13.88;;
28070;SDS011;15383;48.408;9.968;2024-01-10T00:45:04;39.63;;;13.45;;
28070;SDS011;15383;48.408;9.968;2024-01-10T00:47:30;32.78;;;14.20;;
28070;SDS011;15383;48.408;9.968;2024-01-10T00:49:55;30.85;;;13.50;;
28070;SDS011;15383;48.408;9.968;2024-01-10T00:52:21;39.50;;;14.50;;
28070;SDS011;15383;48.408;9.968;2024-01-10T00:54:47;35.25;;;13.32;;
28070;SDS011;15383;48.408;9.968;2024-01-10T00:57:12;31.35;;;11.82;;
28070;SDS011;15383;48.408;9.968;2024-01-10T00:59:38;33.08;;;14.38;;
28070;SDS011;15383;48.408;9.968;2024-01-10T01:02:04;37.65;;;12.77;;
28070;SDS011;15383;48.408;9.968;2024-01-10T01:04:29;33.85;;;12.73;;
28070;SDS011;15383;48.408;9.968;2024-01-10T01:06:55;38.83;;;13.98;;
28070;SDS011;15383;48.408;9.968;2024-01-10T01:09:20;29.75;;;12.57;;
28070;SDS011;15383;48.408;9.968;2024-01-10T01:11:46;28.08;;;12.50;;
28070;SDS011;15383;48.408;9.968;2024-01-10T01:14:11;32.83;;;12.30;;
28070;SDS011;15383;48.408;9.968;2024-01-10T01:16:37;38.80;;;13.35;;
28070;SDS011;15383;48.408;9.968;2024-01-10T01:19:02;32.60;;;13.32;;
28070;SDS011;15383;48.408;9.968;2024-01-10T01:21:28;27.33;;;12.30;;
28070;SDS011;15383;48.408;9.968;2024-01-10T01:23:54;32.40;;;12.50;;
28070;SDS011;15383;48.408;9.968;2024-01-10T01:26:19;38.03;;;13.88;;
28070;SDS011;15383;48.408;9.968;2024-01-10T01:28:45;36.10;;;13.10;;
28070;SDS011;15383;48.408;9.968;2024-01-10T01:31:10;32.80;;;13.20;;
28070;SDS011;15383;48.408;9.968;2024-01-10T01:33:36;33.10;;;14.00;;
28070;SDS011;15383;48.408;9.968;2024-01-10T01:36:04;38.90;;;13.70;;
28070;SDS011;15383;48.408;9.968;2024-01-10T01:38:30;34.38;;;13.88;;
28070;SDS011;15383;48.408;9.968;2024-01-10T01:40:55;33.25;;;12.95;;
28070;SDS011;15383;48.408;9.968;2024-01-10T01:43:25;34.03;;;13.57;;
28070;SDS011;15383;48.408;9.968;2024-01-10T01:45:51;28.23;;;13.27;;
28070;SDS011;15383;48.408;9.968;2024-01-10T01:48:22;35.30;;;13.68;;
28070;SDS011;15383;48.408;9.968;2024-01-10T01:50:54;37.50;;;14.52;;
28070;SDS011;15383;48.408;9.968;2024-01-10T01:53:23;31.98;;;13.18;;
28070;SDS011;15383;48.408;9.968;2024-01-10T01:55:49;34.10;;;13.43;;
28070;SDS011;15383;48.408;9.968;2024-01-10T01:58:15;35.28;;;13.70;;
28070;SDS011;15383;48.408;9.968;2024-01-10T02:00:42;35.78;;;13.82;;
28070;SDS011;15383;48.408;9.968;2024-01-10T02:03:08;32.63;;;13.82;;
28070;SDS011;15383;48.408;9.968;2024-01-10T02:05:35;38.00;;;12.90;;
28070;SDS011;15383;48.408;9.968;2024-01-10T02:08:01;34.42;;;14.13;;
28070;SDS011;15383;48.408;9.968;2024-01-10T02:10:27;30.77;;;14.07;;
28070;SDS011;15383;48.408;9.968;2024-01-10T02:12:52;30.67;;;13.90;;
28070;SDS011;15383;48.408;9.968;2024-01-10T02:15:18;32.95;;;13.02;;
28070;SDS011;15383;48.408;9.968;2024-01-10T02:17:44;28.80;;;12.25;;
28070;SDS011;15383;48.408;9.968;2024-01-10T02:20:10;33.83;;;13.10;;
28070;SDS011;15383;48.408;9.968;2024-01-10T02:22:41;30.50;;;13.30;;
28070;SDS011;15383;48.408;9.968;2024-01-10T02:25:07;32.17;;;11.98;;
28070;SDS011;15383;48.408;9.968;2024-01-10T02:27:34;31.95;;;12.23;;
28070;SDS011;15383;48.408;9.968;2024-01-10T02:30:01;32.38;;;12.32;;
28070;SDS011;15383;48.408;9.968;2024-01-10T02:32:28;28.42;;;12.02;;
28070;SDS011;15383;48.408;9.968;2024-01-10T02:34:53;28.80;;;12.13;;
28070;SDS011;15383;48.408;9.968;2024-01-10T02:37:19;28.58;;;11.65;;
28070;SDS011;15383;48.408;9.968;2024-01-10T02:39:44;29.58;;;12.52;;
28070;SDS011;15383;48.408;9.968;2024-01-10T02:42:10;26.58;;;11.40;;
28070;SDS011;15383;48.408;9.968;2024-01-10T02:44:36;23.88;;;11.85;;
28070;SDS011;15383;48.408;9.968;2024-01-10T02:47:02;25.25;;;10.65;;
28070;SDS011;15383;48.408;9.968;2024-01-10T02:49:27;29.40;;;11.73;;
28070;SDS011;15383;48.408;9.968;2024-01-10T02:51:53;31.13;;;12.55;;
28070;SDS011;15383;48.408;9.968;2024-01-10T02:54:18;32.50;;;12.30;;
28070;SDS011;15383;48.408;9.968;2024-01-10T02:56:44;30.42;;;11.48;;
28070;SDS011;15383;48.408;9.968;2024-01-10T02:59:09;31.10;;;11.95;;
28070;SDS011;15383;48.408;9.968;2024-01-10T03:01:35;26.27;;;11.52;;
28070;SDS011;15383;48.408;9.968;2024-01-10T03:04:00;29.92;;;11.50;;
28070;SDS011;15383;48.408;9.968;2024-01-10T03:06:26;26.20;;;12.73;;
28070;SDS011;15383;48.408;9.968;2024-01-10T03:08:51;31.80;;;12.15;;
28070;SDS011;15383;48.408;9.968;2024-01-10T03:11:23;28.80;;;11.57;;
28070;SDS011;15383;48.408;9.968;2024-01-10T03:13:50;31.77;;;11.48;;
28070;SDS011;15383;48.408;9.968;2024-01-10T03:16:26;25.58;;;10.77;;
28070;SDS011;15383;48.408;9.968;2024-01-10T03:18:52;31.33;;;11.40;;
28070;SDS011;15383;48.408;9.968;2024-01-10T03:21:17;25.08;;;11.50;;
28070;SDS011;15383;48.408;9.968;2024-01-10T03:23:49;37.80;;;12.80;;
28070;SDS011;15383;48.408;9.968;2024-01-10T03:26:20;32.80;;;12.25;;
28070;SDS011;15383;48.408;9.968;2024-01-10T03:28:45;31.63;;;11.98;;
28070;SDS011;15383;48.408;9.968;2024-01-10T03:31:11;32.78;;;13.25;;
28070;SDS011;15383;48.408;9.968;2024-01-10T03:33:37;24.70;;;11.57;;
28070;SDS011;15383;48.408;9.968;2024-01-10T03:36:03;29.10;;;12.25;;
28070;SDS011;15383;48.408;9.968;2024-01-10T03:38:30;28.67;;;10.02;;
28070;SDS011;15383;48.408;9.968;2024-01-10T03:40:55;26.27;;;11.95;;
28070;SDS011;15383;48.408;9.968;2024-01-10T03:43:21;30.13;;;12.07;;
28070;SDS011;15383;48.408;9.968;2024-01-10T03:45:46;33.47;;;12.68;;
28070;SDS011;15383;48.408;9.968;2024-01-10T03:48:12;30.33;;;11.88;;
28070;SDS011;15383;48.408;9.968;2024-01-10T03:50:37;33.38;;;11.73;;
28070;SDS011;15383;48.408;9.968;2024-01-10T03:53:03;31.23;;;11.95;;
28070;SDS011;15383;48.408;9.968;2024-01-10T03:55:28;25.33;;;11.20;;
28070;SDS011;15383;48.408;9.968;2024-01-10T03:57:54;30.05;;;11.75;;
28070;SDS011;15383;48.408;9.968;2024-01-10T04:00:21;29.25;;;12.27;;
28070;SDS011;15383;48.408;9.968;2024-01-10T04:02:46;25.33;;;11.88;;
28070;SDS011;15383;48.408;9.968;2024-01-10T04:05:12;25.02;;;11.48;;
28070;SDS011;15383;48.408;9.968;2024-01-10T04:07:41;33.65;;;12.77;;
28070;SDS011;15383;48.408;9.968;2024-01-10T04:10:08;30.30;;;11.75;;
28070;SDS011;15383;48.408;9.968;2024-01-10T04:12:38;23.67;;;11.15;;
28070;SDS011;15383;48.408;9.968;2024-01-10T04:15:05;23.27;;;11.80;;
28070;SDS011;15383;48.408;9.968;2024-01-10T04:17:31;23.83;;;11.15;;
28070;SDS011;15383;48.408;9.968;2024-01-10T04:19:57;30.35;;;12.45;;
28070;SDS011;15383;48.408;9.968;2024-01-10T04:22:25;29.23;;;11.15;;
28070;SDS011;15383;48.408;9.968;2024-01-10T04:24:51;29.35;;;12.75;;
28070;SDS011;15383;48.408;9.968;2024-01-10T04:27:17;31.65;;;12.07;;
28070;SDS011;15383;48.408;9.968;2024-01-10T04:29:43;30.13;;;13.30;;
28070;SDS011;15383;48.408;9.968;2024-01-10T04:32:11;32.58;;;11.85;;
28070;SDS011;15383;48.408;9.968;2024-01-10T04:34:37;25.20;;;11.13;;
28070;SDS011;15383;48.408;9.968;2024-01-10T04:37:02;29.85;;;12.30;;
28070;SDS011;15383;48.408;9.968;2024-01-10T04:39:28;30.63;;;12.55;;
28070;SDS011;15383;48.408;9.968;2024-01-10T04:41:54;36.25;;;13.25;;
28070;SDS011;15383;48.408;9.968;2024-01-10T04:44:20;30.20;;;12.52;;
28070;SDS011;15383;48.408;9.968;2024-01-10T04:46:46;30.98;;;12.73;;
28070;SDS011;15383;48.408;9.968;2024-01-10T04:49:11;40.40;;;13.82;;
28070;SDS011;15383;48.408;9.968;2024-01-10T04:51:37;30.92;;;12.65;;
28070;SDS011;15383;48.408;9.968;2024-01-10T04:54:02;31.05;;;12.15;;
28070;SDS011;15383;48.408;9.968;2024-01-10T04:56:28;31.00;;;12.40;;
28070;SDS011;15383;48.408;9.968;2024-01-10T04:58:54;33.45;;;12.55;;
28070;SDS011;15383;48.408;9.968;2024-01-10T05:01:19;29.20;;;12.07;;
28070;SDS011;15383;48.408;9.968;2024-01-10T05:03:45;31.88;;;12.40;;
28070;SDS011;15383;48.408;9.968;2024-01-10T05:06:10;30.25;;;12.85;;
28070;SDS011;15383;48.408;9.968;2024-01-10T05:08:36;23.92;;;11.35;;
28070;SDS011;15383;48.408;9.968;2024-01-10T05:11:02;29.95;;;12.60;;
28070;SDS011;15383;48.408;9.968;2024-01-10T05:13:27;36.80;;;14.52;;
28070;SDS011;15383;48.408;9.968;2024-01-10T05:15:53;35.17;;;13.00;;
28070;SDS011;15383;48.408;9.968;2024-01-10T05:18:20;33.60;;;13.02;;
28070;SDS011;15383;48.408;9.968;2024-01-10T05:20:46;33.08;;;13.68;;
28070;SDS011;15383;48.408;9.968;2024-01-10T05:23:11;35.00;;;14.52;;
28070;SDS011;15383;48.408;9.968;2024-01-10T05:25:37;38.38;;;15.27;;
28070;SDS011;15383;48.408;9.968;2024-01-10T05:28:03;34.88;;;15.02;;
28070;SDS011;15383;48.408;9.968;2024-01-10T05:30:29;35.83;;;14.05;;
28070;SDS011;15383;48.408;9.968;2024-01-10T05:32:55;40.70;;;15.75;;
28070;SDS011;15383;48.408;9.968;2024-01-10T05:35:20;37.90;;;15.15;;
28070;SDS011;15383;48.408;9.968;2024-01-10T05:37:46;41.15;;;14.75;;
28070;SDS011;15383;48.408;9.968;2024-01-10T05:40:11;39.42;;;16.13;;
28070;SDS011;15383;48.408;9.968;2024-01-10T05:42:37;39.97;;;15.60;;
28070;SDS011;15383;48.408;9.968;2024-01-10T05:45:03;42.03;;;15.80;;
28070;SDS011;15383;48.408;9.968;2024-01-10T05:47:29;35.53;;;15.35;;
28070;SDS011;15383;48.408;9.968;2024-01-10T05:49:55;37.15;;;14.88;;
28070;SDS011;15383;48.408;9.968;2024-01-10T05:52:20;39.63;;;15.88;;
28070;SDS011;15383;48.408;9.968;2024-01-10T05:54:47;40.20;;;15.30;;
28070;SDS011;15383;48.408;9.968;2024-01-10T05:57:13;42.35;;;15.40;;
28070;SDS011;15383;48.408;9.968;2024-01-10T05:59:39;39.00;;;16.35;;
28070;SDS011;15383;48.408;9.968;2024-01-10T06:02:05;42.92;;;16.05;;
28070;SDS011;15383;48.408;9.968;2024-01-10T06:04:30;39.80;;;16.63;;
28070;SDS011;15383;48.408;9.968;2024-01-10T06:07:01;38.00;;;14.98;;
28070;SDS011;15383;48.408;9.968;2024-01-10T06:09:26;49.10;;;15.98;;
28070;SDS011;15383;48.408;9.968;2024-01-10T06:11:52;46.72;;;16.65;;
28070;SDS011;15383;48.408;9.968;2024-01-10T06:14:18;48.40;;;15.80;;
28070;SDS011;15383;48.408;9.968;2024-01-10T06:16:43;46.60;;;16.20;;
28070;SDS011;15383;48.408;9.968;2024-01-10T06:19:10;33.75;;;14.93;;
28070;SDS011;15383;48.408;9.968;2024-01-10T06:21:36;36.42;;;16.63;;
28070;SDS011;15383;48.408;9.968;2024-01-10T06:24:02;39.78;;;16.02;;
28070;SDS011;15383;48.408;9.968;2024-01-10T06:26:27;54.00;;;16.20;;
28070;SDS011;15383;48.408;9.968;2024-01-10T06:28:53;41.58;;;15.77;;
28070;SDS011;15383;48.408;9.968;2024-01-10T06:31:19;42.58;;;15.75;;
28070;SDS011;15383;48.408;9.968;2024-01-10T06:33:45;49.83;;;16.88;;
28070;SDS011;15383;48.408;9.968;2024-01-10T06:36:11;43.58;;;16.77;;
28070;SDS011;15383;48.408;9.968;2024-01-10T06:38:38;43.58;;;16.92;;
28070;SDS011;15383;48.408;9.968;2024-01-10T06:41:10;43.78;;;17.10;;
28070;SDS011;15383;48.408;9.968;2024-01-10T06:43:38;42.20;;;15.68;;
28070;SDS011;15383;48.408;9.968;2024-01-10T06:46:04;42.47;;;16.40;;
28070;SDS011;15383;48.408;9.968;2024-01-10T06:48:30;42.95;;;16.25;;
28070;SDS011;15383;48.408;9.968;2024-01-10T06:50:56;42.17;;;15.25;;
28070;SDS011;15383;48.408;9.968;2024-01-10T06:53:22;38.85;;;16.45;;
28070;SDS011;15383;48.408;9.968;2024-01-10T06:55:48;52.38;;;17.48;;
28070;SDS011;15383;48.408;9.968;2024-01-10T06:58:13;42.08;;;17.30;;
28070;SDS011;15383;48.408;9.968;2024-01-10T07:00:39;46.90;;;16.05;;
28070;SDS011;15383;48.408;9.968;2024-01-10T07:03:04;38.28;;;15.10;;
28070;SDS011;15383;48.408;9.968;2024-01-10T07:05:30;37.28;;;15.93;;
28070;SDS011;15383;48.408;9.968;2024-01-10T07:07:57;48.78;;;16.60;;
28070;SDS011;15383;48.408;9.968;2024-01-10T07:10:23;43.30;;;16.30;;
28070;SDS011;15383;48.408;9.968;2024-01-10T07:12:52;38.35;;;16.13;;
28070;SDS011;15383;48.408;9.968;2024-01-10T07:15:18;38.92;;;14.98;;
28070;SDS011;15383;48.408;9.968;2024-01-10T07:17:44;44.13;;;15.98;;
28070;SDS011;15383;48.408;9.968;2024-01-10T07:20:10;33.40;;;15.23;;
28070;SDS011;15383;48.408;9.968;2024-01-10T07:22:37;40.78;;;15.15;;
28070;SDS011;15383;48.408;9.968;2024-01-10T07:25:06;39.20;;;14.85;;
28070;SDS011;15383;48.408;9.968;2024-01-10T07:27:32;35.97;;;14.68;;
28070;SDS011;15383;48.408;9.968;2024-01-10T07:29:58;38.15;;;14.88;;
28070;SDS011;15383;48.408;9.968;2024-01-10T07:32:24;40.47;;;15.43;;
28070;SDS011;15383;48.408;9.968;2024-01-10T07:34:49;34.53;;;14.85;;
28070;SDS011;15383;48.408;9.968;2024-01-10T07:37:15;42.08;;;15.32;;
28070;SDS011;15383;48.408;9.968;2024-01-10T07:42:11;33.28;;;14.10;;
28070;SDS011;15383;48.408;9.968;2024-01-10T07:44:37;39.97;;;14.98;;
28070;SDS011;15383;48.408;9.968;2024-01-10T07:47:02;34.40;;;14.07;;
28070;SDS011;15383;48.408;9.968;2024-01-10T07:49:28;38.70;;;15.20;;
28070;SDS011;15383;48.408;9.968;2024-01-10T07:51:55;36.42;;;14.77;;
28070;SDS011;15383;48.408;9.968;2024-01-10T07:54:20;38.40;;;15.05;;
28070;SDS011;15383;48.408;9.968;2024-01-10T07:56:46;34.97;;;14.40;;
28070;SDS011;15383;48.408;9.968;2024-01-10T07:59:11;33.70;;;15.20;;
28070;SDS011;15383;48.408;9.968;2024-01-10T08:01:40;39.22;;;15.80;;
28070;SDS011;15383;48.408;9.968;2024-01-10T08:04:10;40.95;;;15.32;;
28070;SDS011;15383;48.408;9.968;2024-01-10T08:06:35;36.90;;;14.80;;
28070;SDS011;15383;48.408;9.968;2024-01-10T08:09:01;34.20;;;14.02;;
28070;SDS011;15383;48.408;9.968;2024-01-10T08:11:29;33.78;;;14.18;;
28070;SDS011;15383;48.408;9.968;2024-01-10T08:13:55;43.50;;;16.17;;
28070;SDS011;15383;48.408;9.968;2024-01-10T08:16:20;42.78;;;15.57;;
28070;SDS011;15383;48.408;9.968;2024-01-10T08:18:46;34.65;;;15.65;;
28070;SDS011;15383;48.408;9.968;2024-01-10T08:21:11;40.10;;;14.13;;
28070;SDS011;15383;48.408;9.968;2024-01-10T08:23:37;40.83;;;15.80;;
28070;SDS011;15383;48.408;9.968;2024-01-10T08:26:03;40.58;;;14.30;;
28070;SDS011;15383;48.408;9.968;2024-01-10T08:28:33;43.05;;;14.85;;
28070;SDS011;15383;48.408;9.968;2024-01-10T08:30:58;40.92;;;14.90;;
28070;SDS011;15383;48.408;9.968;2024-01-10T08:33:24;35.95;;;14.88;;
28070;SDS011;15383;48.408;9.968;2024-01-10T08:35:50;42.13;;;15.95;;
28070;SDS011;15383;48.408;9.968;2024-01-10T08:38:15;38.33;;;14.20;;
28070;SDS011;15383;48.408;9.968;2024-01-10T08:40:41;41.78;;;16.23;;
28070;SDS011;15383;48.408;9.968;2024-01-10T08:43:06;39.22;;;15.43;;
28070;SDS011;15383;48.408;9.968;2024-01-10T08:45:32;39.22;;;16.67;;
28070;SDS011;15383;48.408;9.968;2024-01-10T08:47:57;49.50;;;17.10;;
28070;SDS011;15383;48.408;9.968;2024-01-10T08:50:24;33.88;;;14.80;;
28070;SDS011;15383;48.408;9.968;2024-01-10T08:52:49;33.42;;;14.85;;
28070;SDS011;15383;48.408;9.968;2024-01-10T08:55:15;36.00;;;15.10;;
28070;SDS011;15383;48.408;9.968;2024-01-10T08:57:41;39.35;;;15.77;;
28070;SDS011;15383;48.408;9.968;2024-01-10T09:00:06;39.53;;;14.75;;
28070;SDS011;15383;48.408;9.968;2024-01-10T09:02:36;47.88;;;17.38;;
28070;SDS011;15383;48.408;9.968;2024-01-10T09:05:02;34.53;;;15.95;;
28070;SDS011;15383;48.408;9.968;2024-01-10T09:07:29;36.72;;;15.77;;
28070;SDS011;15383;48.408;9.968;2024-01-10T09:09:55;47.50;;;16.13;;
28070;SDS011;15383;48.408;9.968;2024-01-10T09:12:21;43.58;;;17.77;;
28070;SDS011;15383;48.408;9.968;2024-01-10T09:14:46;44.92;;;16.98;;
28070;SDS011;15383;48.408;9.968;2024-01-10T09:17:12;39.42;;;16.02;;
28070;SDS011;15383;48.408;9.968;2024-01-10T09:19:37;40.45;;;16.73;;
28070;SDS011;15383;48.408;9.968;2024-01-10T09:22:03;43.10;;;16.73;;
28070;SDS011;15383;48.408;9.968;2024-01-10T09:24:29;41.25;;;17.13;;
28070;SDS011;15383;48.408;9.968;2024-01-10T09:26:54;50.70;;;18.35;;
28070;SDS011;15383;48.408;9.968;2024-01-10T09:29:21;44.70;;;16.48;;
28070;SDS011;15383;48.408;9.968;2024-01-10T09:31:48;54.05;;;17.55;;
28070;SDS011;15383;48.408;9.968;2024-01-10T09:34:14;47.10;;;17.52;;
28070;SDS011;15383;48.408;9.968;2024-01-10T09:36:39;46.28;;;16.55;;
28070;SDS011;15383;48.408;9.968;2024-01-10T09:39:05;42.05;;;18.17;;
28070;SDS011;15383;48.408;9.968;2024-01-10T09:41:36;42.83;;;17.13;;
28070;SDS011;15383;48.408;9.968;2024-01-10T09:44:13;47.42;;;18.20;;
28070;SDS011;15383;48.408;9.968;2024-01-10T09:46:43;43.85;;;17.48;;
28070;SDS011;15383;48.408;9.968;2024-01-10T09:49:13;43.17;;;17.45;;
28070;SDS011;15383;48.408;9.968;2024-01-10T09:51:38;46.17;;;17.27;;
28070;SDS011;15383;48.408;9.968;2024-01-10T09:54:04;47.80;;;17.83;;
28070;SDS011;15383;48.408;9.968;2024-01-10T09:56:30;48.22;;;19.33;;
28070;SDS011;15383;48.408;9.968;2024-01-10T09:58:58;44.05;;;18.58;;
28070;SDS011;15383;48.408;9.968;2024-01-10T10:01:25;56.50;;;18.83;;
28070;SDS011;15383;48.408;9.968;2024-01-10T10:03:52;51.83;;;19.77;;
28070;SDS011;15383;48.408;9.968;2024-01-10T10:06:21;48.50;;;17.65;;
28070;SDS011;15383;48.408;9.968;2024-01-10T10:08:47;47.13;;;17.13;;
28070;SDS011;15383;48.408;9.968;2024-01-10T10:11:13;47.63;;;19.15;;
28070;SDS011;15383;48.408;9.968;2024-01-10T10:13:41;50.90;;;18.50;;
28070;SDS011;15383;48.408;9.968;2024-01-10T10:16:07;50.47;;;20.02;;
28070;SDS011;15383;48.408;9.968;2024-01-10T10:18:37;53.67;;;18.67;;
28070;SDS011;15383;48.408;9.968;2024-01-10T10:21:11;50.53;;;18.35;;
28070;SDS011;15383;48.408;9.968;2024-01-10T10:23:39;51.28;;;18.05;;
28070;SDS011;15383;48.408;9.968;2024-01-10T10:26:13;51.75;;;17.75;;
28070;SDS011;15383;48.408;9.968;2024-01-10T10:28:44;51.95;;;17.88;;
28070;SDS011;15383;48.408;9.968;2024-01-10T10:31:14;54.63;;;18.67;;
28070;SDS011;15383;48.408;9.968;2024-01-10T10:33:41;55.97;;;17.92;;
28070;SDS011;15383;48.408;9.968;2024-01-10T10:36:08;51.28;;;18.55;;
28070;SDS011;15383;48.408;9.968;2024-01-10T10:38:34;50.72;;;17.63;;
28070;SDS011;15383;48.408;9.968;2024-01-10T10:41:01;47.60;;;18.13;;
28070;SDS011;15383;48.408;9.968;2024-01-10T10:43:38;45.53;;;17.58;;
28070;SDS011;15383;48.408;9.968;2024-01-10T10:46:05;48.08;;;17.60;;
28070;SDS011;15383;48.408;9.968;2024-01-10T10:48:35;46.88;;;16.38;;
28070;SDS011;15383;48.408;9.968;2024-01-10T10:51:11;40.50;;;16.90;;
28070;SDS011;15383;48.408;9.968;2024-01-10T10:53:41;47.53;;;16.30;;
28070;SDS011;15383;48.408;9.968;2024-01-10T10:56:10;41.93;;;15.60;;
28070;SDS011;15383;48.408;9.968;2024-01-10T10:58:41;49.75;;;17.02;;
28070;SDS011;15383;48.408;9.968;2024-01-10T11:01:08;46.47;;;14.73;;
28070;SDS011;15383;48.408;9.968;2024-01-10T11:03:36;52.05;;;16.27;;
28070;SDS011;15383;48.408;9.968;2024-01-10T11:06:04;22.05;;;8.90;;
28070;SDS011;15383;48.408;9.968;2024-01-10T11:08:35;23.95;;;9.18;;
28070;SDS011;15383;48.408;9.968;2024-01-10T11:11:10;24.55;;;9.48;;
28070;SDS011;15383;48.408;9.968;2024-01-10T11:14:06;27.70;;;10.77;;
28070;SDS011;15383;48.408;9.968;2024-01-10T11:16:48;23.75;;;10.45;;
28070;SDS011;15383;48.408;9.968;2024-01-10T11:24:29;31.98;;;12.25;;
28070;SDS011;15383;48.408;9.968;2024-01-10T11:27:10;32.95;;;12.52;;
28070;SDS011;15383;48.408;9.968;2024-01-10T11:29:40;31.10;;;12.20;;
28070;SDS011;15383;48.408;9.968;2024-01-10T11:32:07;30.20;;;11.27;;
28070;SDS011;15383;48.408;9.968;2024-01-10T11:34:57;25.17;;;12.02;;
28070;SDS011;15383;48.408;9.968;2024-01-10T11:37:27;29.02;;;12.73;;
28070;SDS011;15383;48.408;9.968;2024-01-10T11:40:02;35.97;;;13.10;;
28070;SDS011;15383;48.408;9.968;2024-01-10T11:42:41;31.98;;;13.63;;
28070;SDS011;15383;48.408;9.968;2024-01-10T11:45:08;30.00;;;11.97;;
28070;SDS011;15383;48.408;9.968;2024-01-10T11:47:34;29.30;;;12.45;;
28070;SDS011;15383;48.408;9.968;2024-01-10T11:50:02;27.85;;;10.93;;
28070;SDS011;15383;48.408;9.968;2024-01-10T11:52:32;31.65;;;11.77;;
28070;SDS011;15383;48.408;9.968;2024-01-10T11:54:59;27.02;;;12.32;;
28070;SDS011;15383;48.408;9.968;2024-01-10T11:57:25;26.83;;;12.85;;
28070;SDS011;15383;48.408;9.968;2024-01-10T11:59:53;23.40;;;10.82;;
28070;SDS011;15383;48.408;9.968;2024-01-10T12:02:20;29.13;;;11.77;;
28070;SDS011;15383;48.408;9.968;2024-01-10T12:04:47;24.33;;;10.93;;
28070;SDS011;15383;48.408;9.968;2024-01-10T12:07:13;19.92;;;9.65;;
28070;SDS011;15383;48.408;9.968;2024-01-10T12:09:39;26.25;;;10.88;;
28070;SDS011;15383;48.408;9.968;2024-01-10T12:12:05;25.13;;;11.57;;
28070;SDS011;15383;48.408;9.968;2024-01-10T12:14:31;21.70;;;10.95;;
28070;SDS011;15383;48.408;9.968;2024-01-10T12:16:57;30.13;;;10.52;;
28070;SDS011;15383;48.408;9.968;2024-01-10T12:19:24;24.42;;;10.77;;
28070;SDS011;15383;48.408;9.968;2024-01-10T12:21:49;24.58;;;10.40;;
28070;SDS011;15383;48.408;9.968;2024-01-10T12:24:15;35.25;;;12.75;;
28070;SDS011;15383;48.408;9.968;2024-01-10T12:26:45;27.88;;;12.50;;
28070;SDS011;15383;48.408;9.968;2024-01-10T12:29:11;38.47;;;13.63;;
28070;SDS011;15383;48.408;9.968;2024-01-10T12:31:37;36.10;;;12.75;;
28070;SDS011;15383;48.408;9.968;2024-01-10T12:34:04;34.60;;;14.32;;
28070;SDS011;15383;48.408;9.968;2024-01-10T12:36:33;40.65;;;14.77;;
28070;SDS011;15383;48.408;9.968;2024-01-10T12:38:58;38.65;;;13.77;;
28070;SDS011;15383;48.408;9.968;2024-01-10T12:41:24;43.63;;;16.60;;
28070;SDS011;15383;48.408;9.968;2024-01-10T12:43:55;40.75;;;16.55;;
28070;SDS011;15383;48.408;9.968;2024-01-10T12:46:21;36.95;;;14.35;;
28070;SDS011;15383;48.408;9.968;2024-01-10T12:48:57;39.33;;;15.63;;
28070;SDS011;15383;48.408;9.968;2024-01-10T12:51:32;37.17;;;14.55;;
28070;SDS011;15383;48.408;9.968;2024-01-10T12:53:58;43.83;;;15.75;;
28070;SDS011;15383;48.408;9.968;2024-01-10T12:56:25;45.17;;;16.20;;
28070;SDS011;15383;48.408;9.968;2024-01-10T12:58:51;37.80;;;14.15;;
28070;SDS011;15383;48.408;9.968;2024-01-10T13:01:17;44.05;;;16.35;;
28070;SDS011;15383;48.408;9.968;2024-01-10T13:03:42;41.33;;;15.82;;
28070;SDS011;15383;48.408;9.968;2024-01-10T13:06:08;36.47;;;16.45;;
28070;SDS011;15383;48.408;9.968;2024-01-10T13:08:34;46.35;;;16.27;;
28070;SDS011;15383;48.408;9.968;2024-01-10T13:11:00;34.00;;;15.25;;
28070;SDS011;15383;48.408;9.968;2024-01-10T13:13:26;44.80;;;16.95;;
28070;SDS011;15383;48.408;9.968;2024-01-10T13:15:52;45.53;;;16.08;;
28070;SDS011;15383;48.408;9.968;2024-01-10T13:18:17;43.55;;;16.73;;
28070;SDS011;15383;48.408;9.968;2024-01-10T13:20:44;46.90;;;16.33;;
28070;SDS011;15383;48.408;9.968;2024-01-10T13:23:10;38.10;;;15.52;;
28070;SDS011;15383;48.408;9.968;2024-01-10T13:25:36;43.42;;;15.68;;
28070;SDS011;15383;48.408;9.968;2024-01-10T13:28:02;40.90;;;16.27;;
28070;SDS011;15383;48.408;9.968;2024-01-10T13:30:29;45.92;;;17.00;;
28070;SDS011;15383;48.408;9.968;2024-01-10T13:32:55;43.15;;;15.25;;
28070;SDS011;15383;48.408;9.968;2024-01-10T13:35:20;38.45;;;15.32;;
28070;SDS011;15383;48.408;9.968;2024-01-10T13:37:47;38.35;;;15.57;;
28070;SDS011;15383;48.408;9.968;2024-01-10T13:40:12;40.80;;;16.17;;
28070;SDS011;15383;48.408;9.968;2024-01-10T13:42:44;43.67;;;15.93;;
28070;SDS011;15383;48.408;9.968;2024-01-10T13:45:10;43.75;;;14.82;;
28070;SDS011;15383;48.408;9.968;2024-01-10T13:47:37;45.35;;;14.85;;
28070;SDS011;15383;48.408;9.968;2024-01-10T13:50:03;39.50;;;15.38;;
28070;SDS011;15383;48.408;9.968;2024-01-10T13:52:30;44.85;;;16.60;;
28070;SDS011;15383;48.408;9.968;2024-01-10T13:55:00;40.80;;;15.77;;
28070;SDS011;15383;48.408;9.968;2024-01-10T13:57:25;43.72;;;15.85;;
28070;SDS011;15383;48.408;9.968;2024-01-10T13:59:52;41.92;;;16.85;;
28070;SDS011;15383;48.408;9.968;2024-01-10T14:02:20;42.78;;;16.80;;
28070;SDS011;15383;48.408;9.968;2024-01-10T14:04:49;40.30;;;15.48;;
28070;SDS011;15383;48.408;9.968;2024-01-10T14:07:15;33.92;;;15.60;;
28070;SDS011;15383;48.408;9.968;2024-01-10T14:09:40;47.22;;;16.55;;
28070;SDS011;15383;48.408;9.968;2024-01-10T14:12:06;42.90;;;16.88;;
28070;SDS011;15383;48.408;9.968;2024-01-10T14:14:31;49.22;;;18.00;;
28070;SDS011;15383;48.408;9.968;2024-01-10T14:16:57;44.83;;;17.55;;
28070;SDS011;15383;48.408;9.968;2024-01-10T14:19:23;40.55;;;16.17;;
28070;SDS011;15383;48.408;9.968;2024-01-10T14:21:48;42.35;;;15.38;;
28070;SDS011;15383;48.408;9.968;2024-01-10T14:24:14;41.35;;;17.40;;
28070;SDS011;15383;48.408;9.968;2024-01-10T14:26:39;46.35;;;16.40;;